Time;durP1;ratioP1;P1;durP2;ratioP2;P2;SDS_P1;SDS_P2;PMS_P1;PMS_P2;Temp;Humidity;BMP_temperature;BMP_pressure;BME280_temperature;BME280_humidity;BME280_pressure;Samples;Min_cycle;Max_cycle;Signal;HPM_P1;HPM_P2
2023/08/08 00:02:21;;;;;;;5.75;2.60;;;15.80;91.30;;;;;;5136943;28;20091;-76
2023/08/08 00:04:49;;;;;;;4.80;2.72;;;15.80;91.40;;;;;;5118795;28;20040;-76
2023/08/08 00:07:15;;;;;;;4.38;2.60;;;15.80;91.50;;;;;;5136829;28;20327;-76
2023/08/08 00:09:40;;;;;;;4.82;2.78;;;15.70;91.50;;;;;;5118860;28;20027;-76
2023/08/08 00:12:07;;;;;;;3.38;2.38;;;15.70;91.60;;;;;;5118897;28;20032;-76
2023/08/08 00:14:32;;;;;;;5.38;2.58;;;15.80;91.60;;;;;;5118683;28;20024;-76
2023/08/08 00:16:58;;;;;;;4.45;2.80;;;15.70;91.60;;;;;;5118072;28;20031;-76
2023/08/08 00:19:23;;;;;;;4.43;2.60;;;15.70;91.60;;;;;;5118662;28;20036;-76
2023/08/08 00:21:49;;;;;;;5.38;2.60;;;15.70;91.70;;;;;;5118571;28;20080;-76
2023/08/08 00:24:14;;;;;;;4.13;2.17;;;15.70;91.70;;;;;;5136354;28;20032;-76
2023/08/08 00:26:40;;;;;;;5.13;2.75;;;15.70;91.80;;;;;;5118370;28;20031;-76
2023/08/08 00:29:06;;;;;;;8.18;2.83;;;15.70;91.80;;;;;;5136326;28;20027;-76
2023/08/08 00:31:32;;;;;;;4.60;2.65;;;15.70;91.80;;;;;;5118452;28;20020;-76
2023/08/08 00:33:57;;;;;;;6.30;2.72;;;15.70;91.80;;;;;;5136276;28;20038;-76
2023/08/08 00:36:23;;;;;;;4.72;2.58;;;15.70;91.80;;;;;;5118289;28;20032;-76
2023/08/08 00:38:49;;;;;;;5.03;3.00;;;15.80;91.80;;;;;;5118266;28;20062;-76
2023/08/08 00:41:15;;;;;;;3.80;2.45;;;15.70;91.80;;;;;;5136243;28;20040;-76
2023/08/08 00:43:40;;;;;;;7.13;2.78;;;15.70;91.90;;;;;;5135873;28;20044;-76
2023/08/08 00:46:06;;;;;;;6.78;3.10;;;15.70;92.10;;;;;;5101107;28;20042;-76
2023/08/08 00:48:32;;;;;;;5.70;2.83;;;15.70;92.00;;;;;;5118070;28;20042;-76
2023/08/08 00:50:59;;;;;;;5.88;3.22;;;15.80;92.00;;;;;;5136114;28;20028;-76
2023/08/08 00:53:26;;;;;;;4.40;2.60;;;15.70;92.00;;;;;;5135880;28;20031;-76
2023/08/08 00:55:53;;;;;;;6.22;2.90;;;15.80;92.00;;;;;;5118059;28;20111;-76
2023/08/08 00:58:19;;;;;;;4.90;2.65;;;15.70;92.40;;;;;;5135838;28;20047;-76
2023/08/08 01:00:45;;;;;;;6.10;2.85;;;15.70;92.00;;;;;;5135731;28;20032;-76
2023/08/08 01:03:10;;;;;;;6.78;2.80;;;15.80;92.00;;;;;;5117672;28;20084;-76
2023/08/08 01:05:46;;;;;;;6.72;2.90;;;15.80;91.90;;;;;;5117744;28;20050;-75
2023/08/08 01:08:20;;;;;;;3.78;2.75;;;15.80;92.00;;;;;;5135412;28;20034;-76
2023/08/08 01:10:46;;;;;;;6.30;2.72;;;15.70;92.00;;;;;;5135543;28;20026;-76
2023/08/08 01:13:17;;;;;;;6.22;3.08;;;15.70;92.10;;;;;;5117393;28;20095;-76
2023/08/08 01:15:46;;;;;;;5.45;2.45;;;15.60;92.70;;;;;;5135506;28;20045;-76
2023/08/08 01:18:14;;;;;;;4.82;2.85;;;15.60;92.30;;;;;;5117356;28;20019;-76
2023/08/08 01:20:41;;;;;;;7.57;2.75;;;15.60;92.40;;;;;;5101206;28;20024;-76
2023/08/08 01:23:18;;;;;;;5.95;3.17;;;15.60;92.50;;;;;;5135200;28;20020;-76
2023/08/08 01:25:45;;;;;;;4.13;2.53;;;15.60;92.60;;;;;;5117347;28;20055;-76
2023/08/08 01:28:11;;;;;;;6.50;2.90;;;15.50;92.70;;;;;;5134456;28;20011;-75
2023/08/08 01:30:37;;;;;;;4.45;2.63;;;15.60;92.70;;;;;;5135186;28;20076;-75
2023/08/08 01:33:04;;;;;;;5.35;2.70;;;15.60;92.70;;;;;;5117110;28;20016;-76
2023/08/08 01:35:32;;;;;;;6.60;2.55;;;15.60;92.70;;;;;;5135115;28;20012;-76
2023/08/08 01:38:20;;;;;;;4.38;2.70;;;15.60;92.80;;;;;;5135004;28;20072;-76
2023/08/08 01:40:46;;;;;;;6.22;2.60;;;15.70;92.70;;;;;;5135110;28;20024;-76
2023/08/08 01:43:14;;;;;;;4.20;2.72;;;15.70;92.80;;;;;;5134651;28;20034;-76
2023/08/08 01:45:41;;;;;;;5.30;2.72;;;15.60;93.00;;;;;;5116899;28;20019;-76
2023/08/08 01:48:08;;;;;;;6.70;2.97;;;15.60;93.00;;;;;;5134810;28;20024;-76
2023/08/08 01:50:33;;;;;;;6.70;2.70;;;15.60;93.10;;;;;;5116737;28;20443;-75
2023/08/08 01:52:59;;;;;;;7.45;2.75;;;15.50;93.30;;;;;;5134743;28;20012;-76
2023/08/08 01:55:25;;;;;;;7.18;2.60;;;15.50;93.30;;;;;;5134806;28;20118;-76
2023/08/08 01:57:50;;;;;;;4.68;2.67;;;15.60;93.30;;;;;;5134662;28;20031;-75
2023/08/08 02:00:16;;;;;;;6.32;3.00;;;15.70;93.50;;;;;;5134594;28;20391;-76
2023/08/08 02:02:42;;;;;;;8.30;3.60;;;15.70;93.40;;;;;;5116721;28;20023;-76
2023/08/08 02:05:07;;;;;;;7.18;3.28;;;15.70;93.50;;;;;;5134435;28;20065;-76
2023/08/08 02:07:33;;;;;;;8.25;2.70;;;15.70;93.50;;;;;;5116750;28;20027;-76
2023/08/08 02:09:58;;;;;;;6.80;3.00;;;15.80;93.40;;;;;;5116404;28;20035;-76
2023/08/08 02:12:24;;;;;;;7.28;3.20;;;15.90;93.50;;;;;;5116359;28;20032;-76
2023/08/08 02:14:50;;;;;;;6.65;3.25;;;15.90;93.50;;;;;;5134366;28;20023;-76
2023/08/08 02:17:16;;;;;;;4.75;2.90;;;15.90;93.60;;;;;;5134309;28;20035;-76
2023/08/08 02:19:41;;;;;;;6.60;2.80;;;15.90;93.70;;;;;;5134286;28;20036;-76
2023/08/08 02:22:07;;;;;;;5.78;3.30;;;15.80;94.00;;;;;;5134405;28;20034;-76
2023/08/08 02:24:32;;;;;;;8.20;3.35;;;15.70;94.10;;;;;;5134195;28;20031;-76
2023/08/08 02:26:58;;;;;;;5.28;3.08;;;15.60;94.40;;;;;;5116232;28;20016;-76
2023/08/08 02:29:24;;;;;;;9.07;3.55;;;15.70;94.90;;;;;;5116294;28;20194;-76
2023/08/08 02:31:49;;;;;;;8.23;3.50;;;15.60;94.80;;;;;;5116335;28;20486;-76
2023/08/08 02:34:15;;;;;;;5.88;2.85;;;15.60;94.90;;;;;;5133989;28;20042;-77
2023/08/08 02:36:40;;;;;;;9.43;3.67;;;15.50;95.10;;;;;;5134022;28;20035;-76
2023/08/08 02:39:06;;;;;;;6.03;3.33;;;15.50;95.20;;;;;;5133856;28;20046;-76
2023/08/08 02:41:32;;;;;;;8.90;3.70;;;15.40;95.20;;;;;;5134148;28;20020;-76
2023/08/08 02:43:57;;;;;;;6.47;3.78;;;15.40;95.20;;;;;;5115575;28;20063;-76
2023/08/08 02:46:23;;;;;;;9.15;3.35;;;15.30;95.50;;;;;;5133988;28;20038;-77
2023/08/08 02:48:48;;;;;;;7.30;3.17;;;15.40;95.40;;;;;;5133933;28;20041;-76
2023/08/08 02:51:14;;;;;;;8.20;3.58;;;15.40;95.30;;;;;;5115934;28;20067;-76
2023/08/08 02:53:40;;;;;;;7.78;3.25;;;15.30;95.30;;;;;;5099056;28;20049;-76
2023/08/08 02:56:05;;;;;;;8.80;3.35;;;15.30;95.40;;;;;;5098982;28;20027;-76
2023/08/08 02:58:31;;;;;;;6.03;3.55;;;15.30;95.50;;;;;;5115981;28;20031;-76
2023/08/08 03:00:57;;;;;;;7.45;3.25;;;15.30;95.40;;;;;;5115932;28;20027;-76
2023/08/08 03:03:23;;;;;;;9.95;4.18;;;15.30;95.40;;;;;;5115812;28;20467;-76
2023/08/08 03:05:49;;;;;;;8.10;3.95;;;15.30;95.50;;;;;;5115967;28;20027;-76
2023/08/08 03:08:15;;;;;;;7.40;3.60;;;15.30;95.50;;;;;;5133757;28;20028;-76
2023/08/08 03:10:41;;;;;;;7.15;3.47;;;15.30;95.50;;;;;;5115729;28;20038;-76
2023/08/08 03:13:07;;;;;;;13.20;3.95;;;15.30;95.60;;;;;;5133742;28;20105;-76
2023/08/08 03:15:32;;;;;;;8.45;3.65;;;15.40;95.60;;;;;;5115706;28;20023;-76
2023/08/08 03:17:58;;;;;;;8.60;3.70;;;15.40;95.60;;;;;;5115801;28;20043;-76
2023/08/08 03:20:23;;;;;;;7.75;3.72;;;15.40;95.60;;;;;;5133644;28;20106;-76
2023/08/08 03:22:49;;;;;;;10.80;4.13;;;15.40;95.70;;;;;;5133659;28;20054;-76
2023/08/08 03:25:15;;;;;;;9.63;3.92;;;15.30;95.80;;;;;;5133511;28;20059;-76
2023/08/08 03:27:41;;;;;;;7.30;3.83;;;15.30;95.90;;;;;;5115526;28;20024;-76
2023/08/08 03:30:07;;;;;;;8.30;4.05;;;15.30;96.10;;;;;;5115796;28;20027;-76
2023/08/08 03:32:33;;;;;;;11.02;3.97;;;15.20;96.20;;;;;;5133499;28;20020;-75
2023/08/08 03:34:58;;;;;;;8.57;4.03;;;15.30;96.10;;;;;;5098766;28;20462;-76
2023/08/08 03:37:24;;;;;;;10.40;4.10;;;15.30;96.10;;;;;;5133504;28;20100;-76
2023/08/08 03:39:49;;;;;;;8.32;3.75;;;15.30;96.10;;;;;;5133585;28;20028;-76
2023/08/08 03:42:15;;;;;;;7.68;3.72;;;15.30;96.20;;;;;;5133433;28;20043;-76
2023/08/08 03:44:41;;;;;;;7.10;4.00;;;15.30;96.30;;;;;;5115276;28;20081;-76
2023/08/08 03:47:07;;;;;;;9.18;3.83;;;15.20;96.40;;;;;;5115317;28;20023;-76
2023/08/08 03:49:33;;;;;;;8.38;4.05;;;15.20;96.30;;;;;;5115605;28;20040;-76
2023/08/08 03:51:58;;;;;;;13.15;4.22;;;15.20;96.20;;;;;;5117432;28;20054;-76
2023/08/08 03:54:24;;;;;;;8.55;4.35;;;15.20;96.20;;;;;;5137085;28;20027;-76
2023/08/08 03:56:49;;;;;;;8.32;4.18;;;15.20;96.10;;;;;;5137031;28;20036;-76
2023/08/08 03:59:15;;;;;;;13.80;4.68;;;15.20;96.40;;;;;;5118928;28;20047;-76
2023/08/08 04:01:41;;;;;;;10.88;4.68;;;15.10;96.40;;;;;;5118858;28;20054;-76
2023/08/08 04:04:06;;;;;;;9.90;4.00;;;15.10;96.40;;;;;;5118884;28;20035;-76
2023/08/08 04:06:32;;;;;;;8.88;3.90;;;15.10;96.40;;;;;;5136848;28;20019;-76
2023/08/08 04:08:58;;;;;;;7.22;4.07;;;15.20;96.50;;;;;;5136829;28;20036;-76
2023/08/08 04:11:23;;;;;;;9.20;4.60;;;15.10;96.60;;;;;;5136749;28;20028;-76
2023/08/08 04:13:49;;;;;;;12.20;3.65;;;15.20;96.60;;;;;;5118731;28;20087;-76
2023/08/08 04:16:14;;;;;;;13.20;5.00;;;15.10;96.60;;;;;;5118507;28;20035;-76
2023/08/08 04:18:40;;;;;;;9.57;4.53;;;15.20;96.60;;;;;;5101687;28;20030;-76
2023/08/08 04:21:06;;;;;;;12.52;4.65;;;15.20;96.60;;;;;;5136714;28;20115;-76
2023/08/08 04:23:31;;;;;;;13.55;4.80;;;15.10;96.70;;;;;;5136440;28;20087;-76
2023/08/08 04:25:57;;;;;;;10.40;3.90;;;15.10;96.80;;;;;;5136434;28;20030;-76
2023/08/08 04:28:23;;;;;;;10.07;4.80;;;15.10;96.80;;;;;;5101523;28;20030;-76
2023/08/08 04:30:48;;;;;;;9.52;4.53;;;15.10;96.70;;;;;;5118293;28;20056;-76
2023/08/08 04:33:14;;;;;;;9.77;4.47;;;15.00;96.90;;;;;;5101347;28;20119;-76
2023/08/08 04:35:39;;;;;;;12.68;4.82;;;15.00;96.80;;;;;;5118196;28;20033;-76
2023/08/08 04:38:05;;;;;;;11.35;4.88;;;15.00;96.80;;;;;;5101266;28;20387;-76
2023/08/08 04:40:31;;;;;;;9.27;4.40;;;15.00;96.90;;;;;;5101199;28;20027;-76
2023/08/08 04:42:56;;;;;;;16.95;4.80;;;14.90;97.10;;;;;;5136268;28;20029;-76
2023/08/08 04:45:22;;;;;;;9.60;4.65;;;15.00;97.00;;;;;;5117817;28;20111;-76
2023/08/08 04:47:48;;;;;;;12.52;4.85;;;14.90;97.10;;;;;;5118275;28;20053;-76
2023/08/08 04:50:13;;;;;;;10.38;4.88;;;15.00;97.00;;;;;;5136022;28;20080;-75
2023/08/08 04:52:39;;;;;;;11.57;4.82;;;15.00;97.00;;;;;;5118071;28;20024;-76
2023/08/08 04:55:05;;;;;;;12.18;5.50;;;14.90;97.20;;;;;;5135895;28;20042;-76
2023/08/08 04:57:31;;;;;;;9.63;4.53;;;14.90;97.40;;;;;;5135822;28;20032;-76
2023/08/08 04:59:57;;;;;;;9.75;4.53;;;14.90;97.40;;;;;;5135783;28;20032;-76
2023/08/08 05:02:22;;;;;;;17.45;5.10;;;14.90;97.40;;;;;;5135733;28;20035;-76
2023/08/08 05:04:48;;;;;;;15.13;5.15;;;14.90;97.60;;;;;;5117654;28;20038;-76
2023/08/08 05:07:14;;;;;;;11.02;4.65;;;14.90;97.60;;;;;;5117815;28;20028;-76
2023/08/08 05:09:40;;;;;;;12.15;5.05;;;14.90;97.60;;;;;;5117640;28;20031;-76
2023/08/08 05:12:06;;;;;;;11.40;5.15;;;14.90;97.60;;;;;;5084131;28;20034;-76
2023/08/08 05:14:31;;;;;;;13.30;5.18;;;15.00;97.50;;;;;;5135478;28;20032;-76
2023/08/08 05:16:57;;;;;;;10.52;4.70;;;15.00;97.50;;;;;;5100474;28;20036;-76
2023/08/08 05:19:24;;;;;;;13.15;4.82;;;15.00;97.60;;;;;;5117543;28;20028;-76
2023/08/08 05:21:49;;;;;;;11.75;4.93;;;15.00;97.80;;;;;;5135403;28;20020;-76
2023/08/08 05:24:15;;;;;;;14.68;5.25;;;15.00;97.80;;;;;;5135291;28;20080;-76
2023/08/08 05:26:41;;;;;;;13.40;4.68;;;15.00;97.90;;;;;;5117377;28;20079;-76
2023/08/08 05:29:06;;;;;;;11.80;5.00;;;15.10;97.90;;;;;;5117533;28;20027;-76
2023/08/08 05:31:33;;;;;;;14.40;4.40;;;15.10;97.90;;;;;;5117230;28;20042;-75
2023/08/08 05:33:58;;;;;;;13.82;4.90;;;15.10;98.00;;;;;;5135203;28;20110;-75
2023/08/08 05:36:24;;;;;;;12.98;4.95;;;15.10;97.90;;;;;;5135079;28;20026;-76
2023/08/08 05:38:50;;;;;;;11.80;4.45;;;15.00;97.90;;;;;;5116898;28;20088;-76
2023/08/08 05:41:15;;;;;;;13.07;4.88;;;15.10;97.90;;;;;;5116942;28;20103;-76
2023/08/08 05:43:42;;;;;;;12.18;4.57;;;15.00;98.20;;;;;;5116730;28;20036;-75
2023/08/08 05:46:08;;;;;;;12.18;5.03;;;15.00;98.10;;;;;;5134951;28;20023;-75
2023/08/08 05:48:33;;;;;;;11.82;4.93;;;15.00;98.10;;;;;;5117010;28;20128;-75
2023/08/08 05:50:59;;;;;;;11.30;4.88;;;15.10;98.00;;;;;;5116874;28;20042;-76
2023/08/08 05:53:25;;;;;;;10.77;5.00;;;15.10;97.90;;;;;;5134752;28;20027;-76
2023/08/08 05:55:50;;;;;;;12.07;5.43;;;15.10;97.90;;;;;;5134694;28;20028;-76
2023/08/08 05:58:16;;;;;;;13.48;4.97;;;15.00;98.20;;;;;;5134629;28;20019;-76
2023/08/08 06:00:42;;;;;;;11.43;5.30;;;15.10;98.20;;;;;;5116868;28;20493;-76
2023/08/08 06:03:08;;;;;;;13.55;5.60;;;15.10;98.10;;;;;;5134592;28;20016;-75
2023/08/08 06:05:34;;;;;;;10.27;5.15;;;15.10;98.30;;;;;;5116551;28;20027;-76
2023/08/08 06:07:59;;;;;;;10.75;5.43;;;15.10;98.30;;;;;;5116505;28;20086;-76
2023/08/08 06:10:25;;;;;;;14.30;5.07;;;15.10;98.20;;;;;;5116695;28;20049;-76
2023/08/08 06:12:51;;;;;;;11.38;5.28;;;15.20;98.10;;;;;;5116544;28;20054;-76
2023/08/08 06:15:16;;;;;;;12.73;5.63;;;15.30;98.20;;;;;;5133973;28;20386;-76
2023/08/08 06:17:42;;;;;;;12.10;5.63;;;15.30;98.20;;;;;;5134359;28;20026;-76
2023/08/08 06:20:09;;;;;;;12.23;4.90;;;15.40;98.30;;;;;;5134272;28;20032;-76
2023/08/08 06:22:35;;;;;;;12.13;5.55;;;15.40;98.30;;;;;;5134279;28;20024;-76
2023/08/08 06:25:00;;;;;;;13.30;5.68;;;15.50;98.10;;;;;;5134142;28;20087;-76
2023/08/08 06:27:26;;;;;;;10.55;5.18;;;15.50;97.90;;;;;;5134328;28;20023;-76
2023/08/08 06:29:51;;;;;;;14.05;5.43;;;15.60;97.70;;;;;;5099405;28;20027;-76
2023/08/08 06:32:17;;;;;;;10.00;5.05;;;15.60;97.60;;;;;;5116267;28;20020;-76
2023/08/08 06:34:43;;;;;;;14.25;5.10;;;15.60;97.50;;;;;;5134058;28;20114;-75
2023/08/08 06:37:08;;;;;;;14.25;5.43;;;15.70;97.60;;;;;;5116260;28;20027;-76
2023/08/08 06:39:35;;;;;;;14.40;4.85;;;15.80;97.60;;;;;;5116053;28;20050;-75
2023/08/08 06:42:00;;;;;;;8.82;4.43;;;15.80;97.70;;;;;;5134017;28;20055;-75
2023/08/08 06:44:26;;;;;;;9.23;4.65;;;15.90;97.20;;;;;;5115798;28;20058;-76
2023/08/08 06:46:51;;;;;;;12.75;5.03;;;15.80;96.90;;;;;;5116031;28;20108;-75
2023/08/08 06:49:17;;;;;;;12.23;5.47;;;15.90;97.00;;;;;;5134071;28;20012;-75
2023/08/08 06:51:42;;;;;;;9.63;4.93;;;16.00;97.10;;;;;;5133937;28;20379;-75
2023/08/08 06:54:08;;;;;;;11.07;5.00;;;16.00;96.90;;;;;;5116012;28;20032;-75
2023/08/08 06:56:34;;;;;;;9.93;4.30;;;16.10;96.70;;;;;;5133857;28;20027;-75
2023/08/08 06:58:59;;;;;;;13.32;4.72;;;16.10;96.50;;;;;;5133855;28;20036;-75
2023/08/08 07:01:25;;;;;;;9.68;4.50;;;16.20;96.70;;;;;;5115956;28;20046;-75
2023/08/08 07:03:50;;;;;;;11.00;4.93;;;16.30;96.70;;;;;;5115676;28;20050;-75
2023/08/08 07:06:19;;;;;;;8.90;3.92;;;16.30;96.30;;;;;;5133804;28;20023;-75
2023/08/08 07:08:45;;;;;;;8.43;4.50;;;16.30;96.10;;;;;;5133736;28;20091;-75
2023/08/08 07:11:10;;;;;;;11.55;4.68;;;16.30;96.00;;;;;;5133681;28;20031;-75
2023/08/08 07:13:36;;;;;;;10.43;4.60;;;16.40;96.00;;;;;;5115850;28;20102;-76
2023/08/08 07:16:02;;;;;;;8.23;4.15;;;16.50;95.90;;;;;;5133690;28;20031;-75
2023/08/08 07:18:28;;;;;;;11.98;4.55;;;16.50;95.40;;;;;;5098927;28;20028;-76
2023/08/08 07:20:53;;;;;;;10.00;3.80;;;16.60;95.40;;;;;;5133671;28;20083;-75
2023/08/08 07:23:19;;;;;;;9.18;4.13;;;16.70;95.10;;;;;;5133569;28;20028;-75
2023/08/08 07:25:48;;;;;;;9.20;3.15;;;16.60;94.70;;;;;;5115798;28;20030;-75
2023/08/08 07:28:14;;;;;;;7.65;3.60;;;16.60;94.30;;;;;;5137617;28;20027;-75
2023/08/08 07:30:40;;;;;;;8.95;3.33;;;16.70;94.40;;;;;;5119749;28;20024;-76
2023/08/08 07:33:08;;;;;;;10.25;3.45;;;16.70;94.30;;;;;;5137509;28;20027;-76
2023/08/08 07:35:34;;;;;;;8.60;3.88;;;16.80;94.30;;;;;;5119352;28;20045;-75
2023/08/08 07:38:00;;;;;;;8.25;3.53;;;16.80;93.70;;;;;;5137460;28;20028;-76
2023/08/08 07:40:25;;;;;;;9.10;3.42;;;16.80;93.90;;;;;;5137344;28;20055;-76
2023/08/08 07:42:51;;;;;;;7.07;3.40;;;16.80;93.70;;;;;;5119369;28;20042;-76
2023/08/08 07:45:17;;;;;;;8.23;3.58;;;16.80;93.70;;;;;;5137014;28;20052;-76
2023/08/08 07:47:42;;;;;;;10.35;3.85;;;16.90;93.50;;;;;;5119320;28;20027;-75
2023/08/08 07:50:08;;;;;;;10.75;4.03;;;16.90;93.50;;;;;;5137218;28;20048;-75
2023/08/08 07:52:38;;;;;;;9.27;3.83;;;17.00;93.70;;;;;;5137344;28;20087;-75
2023/08/08 07:55:05;;;;;;;8.95;4.05;;;17.00;93.60;;;;;;5118988;28;20053;-76
2023/08/08 07:57:33;;;;;;;6.93;3.35;;;17.10;93.80;;;;;;5137022;28;20352;-76
2023/08/08 07:59:59;;;;;;;9.23;3.55;;;17.20;93.80;;;;;;5137055;28;20024;-75
2023/08/08 08:02:24;;;;;;;9.45;3.50;;;17.30;93.00;;;;;;5137148;28;20024;-76
2023/08/08 08:04:50;;;;;;;9.80;3.13;;;17.40;93.10;;;;;;5136977;28;20032;-76
2023/08/08 08:07:16;;;;;;;5.13;2.35;;;17.50;93.20;;;;;;5136945;28;20024;-75
2023/08/08 08:09:42;;;;;;;5.97;2.85;;;17.50;92.30;;;;;;5118721;28;20028;-75
2023/08/08 08:12:08;;;;;;;4.65;2.28;;;17.50;91.60;;;;;;5136912;28;20020;-75
2023/08/08 08:14:34;;;;;;;6.40;2.83;;;17.60;92.00;;;;;;5101817;28;20047;-75
2023/08/08 08:17:00;;;;;;;5.82;2.20;;;17.60;91.70;;;;;;5136675;28;20023;-75
2023/08/08 08:19:25;;;;;;;7.15;2.72;;;17.70;91.80;;;;;;5118876;28;20454;-75
2023/08/08 08:21:51;;;;;;;5.03;2.33;;;17.80;91.80;;;;;;5136572;28;20039;-76
2023/08/08 08:24:16;;;;;;;6.07;2.38;;;17.80;91.30;;;;;;5136580;28;20027;-76
2023/08/08 08:26:42;;;;;;;4.20;1.42;;;17.80;90.80;;;;;;5118542;28;20020;-75
2023/08/08 08:29:08;;;;;;;4.95;1.60;;;17.90;91.00;;;;;;5118468;28;20090;-75
2023/08/08 08:31:33;;;;;;;7.72;1.60;;;18.00;91.30;;;;;;5118516;28;20024;-76
2023/08/08 08:33:59;;;;;;;5.43;1.40;;;18.00;90.50;;;;;;5136344;28;20032;-75
2023/08/08 08:36:26;;;;;;;3.38;1.33;;;18.00;90.00;;;;;;5136421;28;20043;-76
2023/08/08 08:38:51;;;;;;;4.32;1.73;;;18.00;88.70;;;;;;5118193;28;20020;-76
2023/08/08 08:41:19;;;;;;;3.35;1.17;;;18.00;89.10;;;;;;5136180;28;20099;-76
2023/08/08 08:43:46;;;;;;;4.28;1.75;;;18.00;89.10;;;;;;5135840;28;20066;-75
2023/08/08 08:46:14;;;;;;;4.15;1.45;;;18.10;88.00;;;;;;5136139;28;20024;-75
2023/08/08 08:48:41;;;;;;;2.53;0.93;;;18.10;86.50;;;;;;5136093;28;20016;-76
2023/08/08 08:51:07;;;;;;;3.33;1.20;;;18.20;85.10;;;;;;5117943;28;20024;-75
2023/08/08 08:53:34;;;;;;;4.80;1.40;;;18.20;85.40;;;;;;5117954;28;20050;-75
2023/08/08 08:56:01;;;;;;;1.75;1.02;;;18.20;84.30;;;;;;5135961;28;20020;-75
2023/08/08 08:58:28;;;;;;;4.25;1.10;;;18.30;85.80;;;;;;5135841;28;20020;-75
2023/08/08 09:00:55;;;;;;;3.58;1.35;;;18.20;85.50;;;;;;5117875;28;20031;-75
2023/08/08 09:03:20;;;;;;;3.00;1.10;;;18.30;86.10;;;;;;5135748;28;20027;-75
2023/08/08 09:05:48;;;;;;;5.00;1.60;;;18.20;85.50;;;;;;5135672;28;20035;-75
2023/08/08 09:08:15;;;;;;;3.80;1.70;;;18.10;86.30;;;;;;5117558;28;20019;-76
2023/08/08 09:10:40;;;;;;;5.03;1.27;;;18.00;87.30;;;;;;5135639;28;20083;-76
2023/08/08 09:13:06;;;;;;;3.67;2.08;;;17.90;88.10;;;;;;5117619;28;20045;-76
2023/08/08 09:15:33;;;;;;;3.53;1.60;;;17.90;88.30;;;;;;5135629;28;20031;-75
2023/08/08 09:17:59;;;;;;;6.10;1.73;;;17.70;87.40;;;;;;5117515;28;20118;-75
2023/08/08 09:20:29;;;;;;;3.58;1.80;;;17.70;88.00;;;;;;5135426;28;20023;-75
2023/08/08 09:22:55;;;;;;;3.35;1.45;;;17.80;88.90;;;;;;5135407;28;20055;-75
2023/08/08 09:25:21;;;;;;;5.82;1.63;;;17.90;89.40;;;;;;5135274;28;20030;-75
2023/08/08 09:27:47;;;;;;;2.25;1.30;;;18.00;90.00;;;;;;5117356;28;20028;-75
2023/08/08 09:30:14;;;;;;;3.28;1.35;;;18.20;88.20;;;;;;5135278;28;20016;-75
2023/08/08 09:32:42;;;;;;;2.65;1.25;;;18.20;86.60;;;;;;5135166;28;20020;-75
2023/08/08 09:35:09;;;;;;;4.13;1.30;;;18.10;85.70;;;;;;5135126;28;20100;-75
2023/08/08 09:37:35;;;;;;;2.38;1.27;;;18.10;85.80;;;;;;5117393;28;20027;-75
2023/08/08 09:40:03;;;;;;;3.08;1.38;;;18.20;86.20;;;;;;5135018;28;20061;-75
2023/08/08 09:42:30;;;;;;;4.13;1.42;;;18.20;85.80;;;;;;5135083;28;20102;-75
2023/08/08 09:44:57;;;;;;;2.55;1.52;;;18.40;87.00;;;;;;5116619;28;20044;-76
2023/08/08 09:47:23;;;;;;;2.60;1.08;;;18.40;85.10;;;;;;5116926;28;20024;-75
2023/08/08 09:49:49;;;;;;;3.67;1.40;;;18.30;85.40;;;;;;5134153;28;20019;-75
2023/08/08 09:52:16;;;;;;;4.15;1.50;;;18.30;84.10;;;;;;5134908;28;20015;-75
2023/08/08 09:54:42;;;;;;;6.05;1.80;;;18.20;84.50;;;;;;5134775;28;20019;-74
2023/08/08 09:57:08;;;;;;;5.15;1.85;;;18.10;84.30;;;;;;5134883;28;20028;-75
2023/08/08 09:59:34;;;;;;;6.38;1.40;;;17.90;85.00;;;;;;5134705;28;20028;-74
2023/08/08 10:02:01;;;;;;;2.95;1.63;;;17.90;85.50;;;;;;5116759;28;20049;-75
2023/08/08 10:04:27;;;;;;;2.92;1.50;;;18.00;87.10;;;;;;5099628;28;20027;-75
2023/08/08 10:06:53;;;;;;;2.80;1.40;;;18.20;87.20;;;;;;5134592;28;20028;-75
2023/08/08 10:09:19;;;;;;;3.90;1.30;;;18.40;85.80;;;;;;5134525;28;20018;-75
2023/08/08 10:11:46;;;;;;;2.40;1.10;;;18.50;86.30;;;;;;5134567;28;20031;-75
2023/08/08 10:14:14;;;;;;;2.25;1.33;;;18.60;86.00;;;;;;5134419;28;20065;-75
2023/08/08 10:16:42;;;;;;;4.72;1.35;;;18.70;84.50;;;;;;5134381;28;20035;-76
2023/08/08 10:19:09;;;;;;;3.45;1.30;;;18.80;84.90;;;;;;5134372;28;20028;-76
2023/08/08 10:21:36;;;;;;;2.03;1.23;;;18.90;85.00;;;;;;5116323;28;20115;-75
2023/08/08 10:24:07;;;;;;;3.00;1.35;;;19.00;83.00;;;;;;5134233;28;20020;-75
2023/08/08 10:26:34;;;;;;;4.60;1.48;;;19.10;84.70;;;;;;5117113;28;20080;-75
2023/08/08 10:29:01;;;;;;;4.15;1.88;;;19.20;82.80;;;;;;5134177;28;20031;-75
2023/08/08 10:31:32;;;;;;;3.42;1.45;;;19.10;79.10;;;;;;5116176;28;20023;-75
2023/08/08 10:34:06;;;;;;;5.10;1.40;;;19.00;80.70;;;;;;5134138;28;20107;-75
2023/08/08 10:37:05;;;;;;;3.60;1.50;;;19.10;80.20;;;;;;5116169;28;20087;-75
2023/08/08 10:39:31;;;;;;;2.50;1.40;;;19.10;80.20;;;;;;5078679;28;20042;-75
2023/08/08 10:42:02;;;;;;;3.30;1.20;;;19.20;81.40;;;;;;5116048;28;20091;-75
2023/08/08 10:44:28;;;;;;;3.83;1.70;;;19.20;79.50;;;;;;5133717;28;20046;-75
2023/08/08 10:46:54;;;;;;;2.58;1.42;;;19.30;80.00;;;;;;5115906;28;20114;-75
2023/08/08 10:49:20;;;;;;;2.60;1.45;;;19.30;80.10;;;;;;5134004;28;20096;-75
2023/08/08 10:51:48;;;;;;;2.28;1.30;;;19.30;79.10;;;;;;5115861;28;20031;-75
2023/08/08 10:54:20;;;;;;;4.40;1.75;;;19.20;78.70;;;;;;5133991;28;20463;-75
2023/08/08 10:56:54;;;;;;;2.75;1.33;;;19.30;80.10;;;;;;5115944;28;20023;-75
2023/08/08 10:59:22;;;;;;;7.78;1.50;;;19.30;79.40;;;;;;5133900;28;20115;-75
2023/08/08 11:01:50;;;;;;;4.47;1.33;;;19.20;80.40;;;;;;5137808;28;20020;-75
2023/08/08 11:04:19;;;;;;;1.40;1.17;;;19.30;82.10;;;;;;5119990;28;20054;-75
2023/08/08 11:06:45;;;;;;;3.15;1.27;;;19.60;81.50;;;;;;5119988;28;20016;-75
2023/08/08 11:09:10;;;;;;;4.22;1.50;;;19.70;81.10;;;;;;5103011;28;20494;-76
2023/08/08 11:11:46;;;;;;;1.98;1.45;;;19.80;80.70;;;;;;5137945;28;20028;-75
2023/08/08 11:14:13;;;;;;;2.40;1.40;;;19.80;78.00;;;;;;5137961;28;20028;-75
2023/08/08 11:16:40;;;;;;;2.75;1.30;;;19.60;77.80;;;;;;5137853;28;20093;-75
2023/08/08 11:19:05;;;;;;;3.47;1.33;;;19.50;78.80;;;;;;5137831;28;20046;-76
2023/08/08 11:21:35;;;;;;;3.05;1.30;;;19.60;78.20;;;;;;5137743;28;20047;-75
2023/08/08 11:24:01;;;;;;;3.97;1.45;;;19.70;79.40;;;;;;5119524;28;20016;-75
2023/08/08 11:26:27;;;;;;;2.50;1.50;;;19.70;77.30;;;;;;5119593;28;20466;-75
2023/08/08 11:28:53;;;;;;;4.10;1.50;;;19.70;77.50;;;;;;5102568;28;20039;-75
2023/08/08 11:31:21;;;;;;;2.70;1.50;;;19.80;77.90;;;;;;5137574;28;20019;-76
2023/08/08 11:33:48;;;;;;;3.25;1.50;;;19.80;78.00;;;;;;5119420;28;20020;-76
2023/08/08 11:36:17;;;;;;;3.75;1.35;;;19.80;77.70;;;;;;5137490;28;20047;-76
2023/08/08 11:38:43;;;;;;;2.63;1.27;;;19.80;78.40;;;;;;5119589;28;20032;-75
2023/08/08 11:41:14;;;;;;;2.72;1.45;;;19.90;78.80;;;;;;5137386;28;20016;-76
2023/08/08 11:43:41;;;;;;;1.98;1.40;;;19.90;78.30;;;;;;5119231;28;20039;-75
2023/08/08 11:46:13;;;;;;;4.85;1.40;;;19.80;78.80;;;;;;5137339;28;20027;-76
2023/08/08 11:48:38;;;;;;;2.35;1.30;;;19.60;78.10;;;;;;5119339;28;20035;-76
2023/08/08 11:51:05;;;;;;;4.07;1.25;;;19.50;78.70;;;;;;5119101;28;20012;-76
2023/08/08 11:53:30;;;;;;;2.95;1.20;;;19.50;78.40;;;;;;5137178;28;20031;-75
2023/08/08 11:55:58;;;;;;;2.90;1.02;;;19.40;75.30;;;;;;5137129;28;20020;-76
2023/08/08 11:58:25;;;;;;;2.50;1.38;;;19.30;77.40;;;;;;5137115;28;20016;-75
2023/08/08 12:00:51;;;;;;;2.88;1.30;;;19.30;78.00;;;;;;5137048;28;20047;-76
2023/08/08 12:03:18;;;;;;;3.05;1.45;;;19.30;78.40;;;;;;5136761;28;20045;-75
2023/08/08 12:05:48;;;;;;;4.32;1.67;;;19.40;79.20;;;;;;5136849;28;20031;-76
2023/08/08 12:08:19;;;;;;;2.40;1.40;;;19.50;78.90;;;;;;5137060;28;20027;-76
2023/08/08 12:10:53;;;;;;;3.00;1.25;;;19.70;78.60;;;;;;5136870;28;20038;-76
2023/08/08 12:13:23;;;;;;;3.03;1.38;;;19.80;79.60;;;;;;5118888;28;20054;-76
2023/08/08 12:15:49;;;;;;;4.13;1.40;;;19.80;79.70;;;;;;5136762;28;20022;-76
2023/08/08 12:18:18;;;;;;;3.80;1.50;;;19.80;79.20;;;;;;5118746;28;20038;-76
2023/08/08 12:20:44;;;;;;;3.33;1.50;;;19.80;77.80;;;;;;5136620;28;20024;-75
2023/08/08 12:23:10;;;;;;;2.47;1.15;;;19.90;79.00;;;;;;5136592;28;20026;-75
2023/08/08 12:25:36;;;;;;;2.17;1.38;;;20.00;78.60;;;;;;5118387;28;20019;-75
2023/08/08 12:28:02;;;;;;;3.83;1.63;;;20.20;79.30;;;;;;5136480;28;20035;-75
2023/08/08 12:30:28;;;;;;;1.02;0.75;;;20.20;77.40;;;;;;5136603;28;20030;-75
2023/08/08 12:32:53;;;;;;;1.73;1.20;;;20.20;73.90;;;;;;5118411;28;20114;-75
2023/08/08 12:35:20;;;;;;;1.50;1.00;;;20.20;75.70;;;;;;5136303;28;20031;-75
2023/08/08 12:37:46;;;;;;;1.90;1.00;;;20.40;77.10;;;;;;5136470;28;20047;-75
2023/08/08 12:40:12;;;;;;;1.17;0.90;;;20.50;74.10;;;;;;5118387;28;20028;-75
2023/08/08 12:42:38;;;;;;;3.80;1.10;;;20.60;74.10;;;;;;5136210;28;20035;-75